Time;durP1;ratioP1;P1;durP2;ratioP2;P2;SDS_P1;SDS_P2;PMS_P1;PMS_P2;Temp;Humidity;BMP_temperature;BMP_pressure;BME280_temperature;BME280_humidity;BME280_pressure;Samples;Min_cycle;Max_cycle;Signal;HPM_P1;HPM_P2
2023/07/18 00:00:33;;;;;;;0.68;0.63;;;28.80;60.80;;;;;;4941844;28;20333;-85
2023/07/18 00:03:02;;;;;;;0.77;0.50;;;28.80;60.90;;;;;;4943251;28;20226;-83
2023/07/18 00:05:32;;;;;;;0.50;0.50;;;28.80;61.10;;;;;;4940040;28;20198;-86
2023/07/18 00:08:00;;;;;;;0.50;0.40;;;28.70;61.20;;;;;;4942536;28;20202;-85
2023/07/18 00:10:29;;;;;;;0.80;0.75;;;28.70;61.10;;;;;;4937744;28;20297;-84
2023/07/18 00:12:57;;;;;;;0.43;0.43;;;28.70;61.10;;;;;;4940677;29;20198;-85
2023/07/18 00:15:26;;;;;;;0.50;0.50;;;28.60;61.40;;;;;;4939850;28;20305;-83
2023/07/18 00:17:54;;;;;;;4.55;1.58;;;28.60;61.50;;;;;;4930759;28;20198;-83
2023/07/18 00:20:24;;;;;;;1.40;0.90;;;28.60;61.60;;;;;;4946256;28;20599;-85
2023/07/18 00:22:53;;;;;;;1.48;0.70;;;28.50;61.70;;;;;;4934166;28;20213;-85
2023/07/18 00:25:22;;;;;;;0.30;0.30;;;28.50;61.60;;;;;;4947629;28;20237;-84
2023/07/18 00:27:53;;;;;;;1.35;0.47;;;28.50;61.70;;;;;;4949747;28;20195;-84
2023/07/18 00:30:23;;;;;;;0.65;0.28;;;28.40;61.70;;;;;;4948092;28;20186;-84
2023/07/18 00:32:51;;;;;;;0.30;0.30;;;28.50;61.80;;;;;;4946916;28;20266;-83
2023/07/18 00:35:20;;;;;;;0.75;0.50;;;28.40;61.70;;;;;;4942728;29;20281;-84
2023/07/18 00:37:48;;;;;;;1.08;0.50;;;28.50;61.90;;;;;;4946832;29;20672;-84
2023/07/18 00:40:18;;;;;;;0.25;0.25;;;28.40;61.90;;;;;;4941356;28;20207;-82
2023/07/18 00:42:48;;;;;;;0.20;0.20;;;28.40;61.80;;;;;;4941165;28;20213;-82
2023/07/18 00:45:17;;;;;;;0.35;0.35;;;28.40;62.00;;;;;;4941515;28;20195;-84
2023/07/18 00:47:48;;;;;;;0.65;0.52;;;28.40;62.00;;;;;;4939460;28;20652;-82
2023/07/18 00:50:18;;;;;;;1.30;0.50;;;28.30;62.00;;;;;;4943290;28;20660;-85
2023/07/18 00:52:49;;;;;;;0.43;0.43;;;28.30;62.10;;;;;;4947542;28;20570;-84
2023/07/18 00:55:19;;;;;;;0.20;0.20;;;28.30;62.20;;;;;;4940264;28;20313;-83
2023/07/18 00:57:49;;;;;;;0.43;0.40;;;28.30;62.30;;;;;;4940664;28;20210;-84
2023/07/18 01:00:22;;;;;;;0.82;0.60;;;28.30;62.70;;;;;;4938486;28;20546;-84
2023/07/18 01:02:51;;;;;;;0.95;0.77;;;28.20;62.80;;;;;;4941181;28;20289;-83
2023/07/18 01:05:20;;;;;;;0.40;0.40;;;28.20;63.10;;;;;;4942341;28;20626;-83
2023/07/18 01:07:49;;;;;;;1.95;0.98;;;28.20;63.60;;;;;;4937868;29;20577;-82
2023/07/18 01:10:23;;;;;;;0.28;0.28;;;28.20;63.70;;;;;;4955791;28;20202;-85
2023/07/18 01:12:53;;;;;;;0.93;0.90;;;28.10;63.50;;;;;;4944898;28;20220;-85
2023/07/18 01:15:22;;;;;;;0.52;0.52;;;28.10;63.90;;;;;;4945605;28;20228;-86
2023/07/18 01:17:51;;;;;;;0.60;0.60;;;28.10;64.20;;;;;;4939542;28;20210;-84
2023/07/18 01:20:22;;;;;;;1.17;1.00;;;28.10;64.40;;;;;;4941974;28;20510;-85
2023/07/18 01:22:54;;;;;;;0.20;0.20;;;28.00;64.70;;;;;;4947979;28;20202;-85
2023/07/18 01:25:23;;;;;;;0.40;0.40;;;28.00;64.50;;;;;;4942011;28;20187;-85
2023/07/18 01:27:53;;;;;;;0.65;0.47;;;28.00;64.50;;;;;;4942155;28;20210;-85
2023/07/18 01:30:24;;;;;;;3.33;1.65;;;27.90;64.60;;;;;;4942676;29;20670;-84
2023/07/18 01:32:54;;;;;;;0.38;0.32;;;27.90;64.90;;;;;;4942076;29;20353;-84
2023/07/18 01:35:25;;;;;;;0.55;0.55;;;27.90;64.70;;;;;;4939082;28;20273;-84
2023/07/18 01:37:56;;;;;;;0.40;0.40;;;27.90;65.00;;;;;;4947499;28;20199;-85
2023/07/18 01:40:25;;;;;;;1.75;0.73;;;27.80;65.00;;;;;;4947217;29;20567;-84
2023/07/18 01:42:55;;;;;;;0.30;0.30;;;27.80;65.10;;;;;;4943134;29;21466;-84
2023/07/18 01:45:27;;;;;;;2.00;0.70;;;27.80;65.00;;;;;;4946190;28;20738;-84
2023/07/18 01:47:56;;;;;;;0.50;0.50;;;27.80;65.10;;;;;;4948248;28;20524;-83
2023/07/18 01:50:25;;;;;;;0.38;0.38;;;27.70;64.90;;;;;;4948807;28;20198;-83
2023/07/18 01:52:55;;;;;;;0.52;0.52;;;27.70;64.90;;;;;;4940421;28;20195;-84
2023/07/18 01:55:23;;;;;;;0.75;0.40;;;27.70;65.00;;;;;;4941889;28;20242;-82
2023/07/18 01:57:52;;;;;;;0.38;0.38;;;27.70;65.00;;;;;;4943268;28;20202;-84
2023/07/18 02:00:21;;;;;;;0.20;0.20;;;27.70;65.00;;;;;;4941181;28;20217;-83
2023/07/18 02:02:52;;;;;;;0.95;0.82;;;27.60;65.00;;;;;;4950718;28;20257;-84
2023/07/18 02:05:22;;;;;;;0.40;0.35;;;27.60;65.20;;;;;;4943345;28;20198;-83
2023/07/18 02:07:52;;;;;;;0.65;0.63;;;27.60;65.30;;;;;;4942254;29;20207;-83
2023/07/18 02:10:22;;;;;;;1.05;0.77;;;27.50;65.30;;;;;;4944967;29;20203;-84
2023/07/18 02:12:52;;;;;;;0.70;0.65;;;27.50;65.40;;;;;;4949864;28;20190;-83
2023/07/18 02:15:21;;;;;;;0.50;0.50;;;27.50;65.50;;;;;;4943038;28;21070;-83
2023/07/18 02:17:51;;;;;;;0.38;0.38;;;27.50;65.70;;;;;;4944195;28;20609;-84
2023/07/18 02:20:19;;;;;;;1.33;1.13;;;27.40;65.90;;;;;;4945868;28;20269;-83
2023/07/18 02:22:48;;;;;;;0.52;0.52;;;27.40;66.80;;;;;;4942261;28;20211;-84
2023/07/18 02:25:17;;;;;;;0.50;0.47;;;27.40;67.60;;;;;;4940179;28;20202;-84
2023/07/18 02:27:48;;;;;;;0.73;0.38;;;27.30;67.30;;;;;;4939954;28;20580;-83
2023/07/18 02:30:16;;;;;;;0.60;0.60;;;27.30;67.10;;;;;;4943025;28;20224;-83
2023/07/18 02:32:45;;;;;;;4.95;1.10;;;27.30;67.00;;;;;;4942779;28;20293;-84
2023/07/18 02:35:21;;;;;;;0.43;0.43;;;27.20;66.90;;;;;;4946424;28;20696;-82
2023/07/18 02:37:49;;;;;;;1.75;0.65;;;27.20;67.00;;;;;;4942912;28;20285;-82
2023/07/18 02:40:18;;;;;;;1.25;0.52;;;27.20;67.10;;;;;;4946785;28;20279;-83
2023/07/18 02:42:48;;;;;;;0.63;0.60;;;27.10;67.00;;;;;;4944322;28;20201;-84
2023/07/18 02:45:16;;;;;;;1.10;1.00;;;27.10;67.20;;;;;;4944581;28;20198;-84
2023/07/18 02:47:45;;;;;;;0.32;0.32;;;27.10;67.20;;;;;;4943832;28;20246;-84
2023/07/18 02:50:13;;;;;;;0.70;0.70;;;27.10;67.10;;;;;;4949047;28;20198;-85
2023/07/18 02:52:42;;;;;;;1.27;0.30;;;27.10;67.20;;;;;;4943047;28;20683;-85
2023/07/18 02:55:10;;;;;;;1.75;0.68;;;27.10;67.20;;;;;;4942805;28;20233;-85
2023/07/18 02:57:38;;;;;;;1.13;0.50;;;27.00;67.20;;;;;;4942709;28;20203;-83
2023/07/18 03:00:19;;;;;;;0.52;0.52;;;27.00;67.10;;;;;;4940003;28;20688;-85
2023/07/18 03:02:49;;;;;;;0.82;0.50;;;27.00;66.90;;;;;;4936524;28;20204;-84
2023/07/18 03:05:18;;;;;;;0.45;0.45;;;27.00;67.20;;;;;;4946221;28;20199;-84
2023/07/18 03:07:47;;;;;;;1.42;0.77;;;27.00;67.40;;;;;;4945427;28;20620;-84
2023/07/18 03:10:16;;;;;;;0.28;0.28;;;26.90;67.70;;;;;;4943387;28;20209;-80
2023/07/18 03:12:44;;;;;;;0.30;0.30;;;26.90;67.70;;;;;;4938621;28;20803;-84
2023/07/18 03:15:16;;;;;;;0.17;0.17;;;26.90;67.50;;;;;;4945263;28;20210;-84
2023/07/18 03:17:44;;;;;;;1.05;0.55;;;26.90;67.40;;;;;;4947264;28;20198;-83
2023/07/18 03:20:18;;;;;;;0.30;0.30;;;26.90;67.40;;;;;;4947257;28;20198;-83
2023/07/18 03:22:49;;;;;;;0.17;0.17;;;26.80;67.40;;;;;;4948828;28;20198;-84
2023/07/18 03:25:19;;;;;;;0.75;0.47;;;26.80;67.40;;;;;;4945422;28;20274;-84
2023/07/18 03:27:47;;;;;;;0.30;0.30;;;26.80;67.50;;;;;;4944194;28;20516;-83
2023/07/18 03:30:17;;;;;;;0.20;0.20;;;26.80;68.50;;;;;;4943557;28;20199;-83
2023/07/18 03:32:46;;;;;;;0.88;0.68;;;26.80;67.80;;;;;;4946833;28;20222;-83
2023/07/18 03:35:14;;;;;;;0.40;0.40;;;26.80;67.80;;;;;;4944465;28;20553;-83
2023/07/18 03:37:43;;;;;;;0.75;0.52;;;26.80;67.70;;;;;;4942316;28;20203;-84
2023/07/18 03:40:15;;;;;;;0.32;0.32;;;26.80;67.90;;;;;;4940054;28;20541;-84
2023/07/18 03:42:45;;;;;;;0.20;0.20;;;26.90;67.80;;;;;;4948111;28;20201;-84
2023/07/18 03:45:14;;;;;;;0.10;0.10;;;26.90;67.90;;;;;;4947539;28;20198;-83
2023/07/18 03:47:43;;;;;;;0.55;0.55;;;26.90;67.80;;;;;;4943479;28;20626;-84
2023/07/18 03:50:13;;;;;;;0.30;0.30;;;26.90;68.00;;;;;;4942646;28;20198;-84
2023/07/18 03:52:42;;;;;;;0.65;0.45;;;27.00;68.00;;;;;;4942529;28;20289;-85
2023/07/18 03:55:10;;;;;;;0.20;0.20;;;27.00;67.90;;;;;;4943383;28;20601;-83
2023/07/18 03:57:40;;;;;;;0.30;0.30;;;27.00;67.90;;;;;;4943171;28;20218;-84
2023/07/18 04:00:13;;;;;;;0.65;0.65;;;27.00;67.90;;;;;;4944659;28;20282;-84
2023/07/18 04:02:44;;;;;;;0.90;0.55;;;27.00;67.90;;;;;;4935704;28;20192;-83
2023/07/18 04:05:16;;;;;;;2.80;0.40;;;27.10;68.10;;;;;;4942797;28;20607;-82
2023/07/18 04:07:46;;;;;;;0.60;0.52;;;27.10;68.10;;;;;;4939527;28;20197;-82
2023/07/18 04:10:14;;;;;;;0.98;0.60;;;27.10;69.10;;;;;;4941089;28;20238;-88
2023/07/18 04:12:43;;;;;;;0.20;0.20;;;27.10;69.00;;;;;;4940203;28;20231;-84
2023/07/18 04:15:13;;;;;;;1.85;0.73;;;27.20;68.90;;;;;;4939924;28;20199;-83
2023/07/18 04:17:42;;;;;;;0.32;0.32;;;27.20;69.10;;;;;;4941632;28;20230;-85
2023/07/18 04:20:13;;;;;;;0.47;0.47;;;27.20;69.50;;;;;;4936184;28;20220;-85
2023/07/18 04:22:42;;;;;;;0.32;0.28;;;27.30;69.80;;;;;;4941368;28;20642;-85
2023/07/18 04:25:11;;;;;;;2.13;1.10;;;27.30;69.60;;;;;;4945073;28;20206;-85
2023/07/18 04:27:40;;;;;;;0.47;0.47;;;27.30;70.80;;;;;;4945182;28;20205;-84
2023/07/18 04:30:10;;;;;;;1.45;0.95;;;27.30;70.00;;;;;;4938153;28;20203;-84
2023/07/18 04:32:40;;;;;;;1.85;0.90;;;27.40;70.00;;;;;;4940897;28;20296;-85
2023/07/18 04:35:09;;;;;;;0.50;0.50;;;27.40;70.20;;;;;;4945906;28;20293;-86
2023/07/18 04:37:39;;;;;;;0.60;0.57;;;27.40;69.90;;;;;;4946763;28;20221;-84
2023/07/18 04:40:09;;;;;;;0.40;0.40;;;27.50;70.10;;;;;;4942823;28;20201;-85
2023/07/18 04:42:38;;;;;;;1.45;0.95;;;27.50;69.80;;;;;;4941831;28;20214;-84
2023/07/18 04:45:07;;;;;;;1.00;0.52;;;27.60;69.80;;;;;;4935451;28;20236;-85
2023/07/18 04:47:36;;;;;;;0.40;0.30;;;27.60;69.60;;;;;;4942181;28;20214;-85
2023/07/18 04:50:06;;;;;;;0.40;0.40;;;27.70;69.70;;;;;;4942931;28;20659;-85
2023/07/18 04:52:34;;;;;;;0.65;0.65;;;27.70;69.40;;;;;;4944576;28;20203;-83
2023/07/18 04:55:04;;;;;;;1.70;0.75;;;27.70;69.30;;;;;;4944108;28;20203;-83
2023/07/18 04:57:34;;;;;;;0.70;0.40;;;27.80;69.20;;;;;;4943588;28;20221;-83
2023/07/18 05:00:03;;;;;;;0.90;0.60;;;27.80;69.00;;;;;;4939772;28;20198;-84
2023/07/18 05:02:31;;;;;;;0.68;0.68;;;27.90;68.80;;;;;;4940806;28;20581;-85
2023/07/18 05:05:00;;;;;;;0.30;0.30;;;27.90;68.70;;;;;;4941507;28;20237;-84
2023/07/18 05:07:29;;;;;;;0.32;0.30;;;28.00;68.90;;;;;;4940669;28;20207;-86
2023/07/18 05:09:57;;;;;;;0.95;0.77;;;28.00;68.90;;;;;;4945393;28;20210;-82
2023/07/18 05:12:27;;;;;;;0.63;0.63;;;28.10;69.10;;;;;;4941480;28;20213;-84
2023/07/18 05:14:55;;;;;;;1.15;0.55;;;28.10;69.10;;;;;;4947930;28;20207;-84
2023/07/18 05:17:24;;;;;;;2.75;1.20;;;28.20;69.10;;;;;;4944602;28;20218;-84
2023/07/18 05:19:52;;;;;;;1.02;0.65;;;28.20;69.00;;;;;;4946098;28;20807;-83
2023/07/18 05:22:21;;;;;;;1.65;0.57;;;28.30;69.10;;;;;;4943140;28;20568;-83
2023/07/18 05:24:50;;;;;;;2.67;0.50;;;28.30;68.90;;;;;;4937777;28;20203;-82
2023/07/18 05:27:19;;;;;;;0.82;0.40;;;28.30;68.90;;;;;;4914620;29;20341;-83
2023/07/18 05:29:49;;;;;;;0.40;0.40;;;28.40;68.80;;;;;;4941435;28;20248;-83
2023/07/18 05:32:18;;;;;;;0.63;0.60;;;28.40;68.70;;;;;;4928357;29;20238;-84
2023/07/18 05:34:46;;;;;;;0.63;0.40;;;28.50;68.80;;;;;;4939462;28;21102;-83
2023/07/18 05:37:15;;;;;;;0.50;0.50;;;28.50;68.80;;;;;;4925947;28;20230;-82
2023/07/18 05:39:43;;;;;;;0.52;0.50;;;28.60;68.60;;;;;;4944960;28;20203;-81
2023/07/18 05:42:12;;;;;;;0.30;0.30;;;28.60;68.50;;;;;;4947106;28;20198;-81
2023/07/18 05:44:40;;;;;;;0.32;0.32;;;28.60;68.50;;;;;;4944894;28;20575;-80
2023/07/18 05:47:10;;;;;;;2.20;0.82;;;28.70;68.40;;;;;;4924211;28;20206;-81
2023/07/18 05:49:40;;;;;;;3.00;0.55;;;28.70;68.40;;;;;;4947510;28;20195;-79
2023/07/18 05:52:09;;;;;;;0.73;0.52;;;28.80;68.40;;;;;;4941348;28;20221;-80
2023/07/18 05:54:37;;;;;;;0.52;0.52;;;28.80;68.50;;;;;;4933818;28;20391;-80
2023/07/18 05:57:07;;;;;;;0.38;0.30;;;28.90;68.70;;;;;;4946494;28;20329;-80
2023/07/18 05:59:36;;;;;;;1.30;0.60;;;29.00;68.70;;;;;;4941867;28;20261;-79
2023/07/18 06:02:04;;;;;;;2.05;0.88;;;29.00;68.60;;;;;;4941215;28;20212;-80
2023/07/18 06:04:35;;;;;;;0.63;0.50;;;29.00;68.40;;;;;;4940880;28;20229;-78
2023/07/18 06:07:03;;;;;;;0.47;0.38;;;29.10;68.30;;;;;;4938689;28;20329;-79
2023/07/18 06:09:32;;;;;;;1.05;0.88;;;29.10;68.20;;;;;;4942102;28;20561;-80
2023/07/18 06:12:01;;;;;;;0.30;0.30;;;29.20;68.00;;;;;;4938404;28;20575;-80
2023/07/18 06:14:29;;;;;;;0.45;0.45;;;29.20;67.80;;;;;;4946762;28;20195;-79
2023/07/18 06:16:58;;;;;;;0.52;0.38;;;29.20;67.60;;;;;;4943180;28;20214;-81
2023/07/18 06:19:27;;;;;;;0.30;0.30;;;29.30;67.60;;;;;;4944569;28;20203;-80
2023/07/18 06:21:57;;;;;;;0.85;0.43;;;29.40;67.60;;;;;;4938937;28;20199;-82
2023/07/18 06:24:25;;;;;;;1.05;0.57;;;29.40;67.40;;;;;;4937183;28;20457;-83
2023/07/18 06:26:54;;;;;;;1.13;0.77;;;29.50;67.40;;;;;;4938947;28;20675;-81
2023/07/18 06:29:22;;;;;;;0.73;0.73;;;29.50;67.20;;;;;;4939422;28;20348;-82
2023/07/18 06:31:51;;;;;;;1.15;0.70;;;29.60;67.00;;;;;;4942842;28;20261;-82
2023/07/18 06:34:20;;;;;;;0.98;0.85;;;29.60;66.70;;;;;;4947035;28;20290;-84
2023/07/18 06:36:48;;;;;;;0.50;0.47;;;29.70;66.40;;;;;;4945347;28;20949;-82
2023/07/18 06:39:18;;;;;;;2.80;1.33;;;29.70;66.50;;;;;;4944750;28;20225;-81
2023/07/18 06:41:46;;;;;;;2.15;0.50;;;29.80;66.60;;;;;;4945037;28;20329;-81
2023/07/18 06:44:15;;;;;;;1.35;0.90;;;29.80;66.30;;;;;;4944855;28;20280;-82
2023/07/18 06:46:44;;;;;;;1.40;1.00;;;29.90;66.30;;;;;;4950414;28;20505;-82
2023/07/18 06:49:13;;;;;;;0.55;0.50;;;29.90;65.90;;;;;;4945889;28;20198;-81
2023/07/18 06:51:42;;;;;;;0.57;0.40;;;30.00;66.00;;;;;;4939186;28;20207;-83
2023/07/18 06:54:10;;;;;;;1.02;0.63;;;30.10;66.10;;;;;;4947320;28;20219;-82
2023/07/18 06:56:42;;;;;;;0.38;0.38;;;30.10;65.70;;;;;;4942590;28;20229;-80
2023/07/18 06:59:11;;;;;;;0.47;0.45;;;30.20;65.50;;;;;;4939795;28;20472;-80
2023/07/18 07:01:39;;;;;;;0.65;0.65;;;30.20;65.20;;;;;;4943607;28;20205;-83
2023/07/18 07:04:08;;;;;;;1.70;0.98;;;30.30;65.00;;;;;;4938485;28;20190;-84
2023/07/18 07:06:41;;;;;;;0.60;0.60;;;30.40;64.80;;;;;;4939682;28;20203;-83
2023/07/18 07:09:12;;;;;;;0.93;0.50;;;30.40;64.40;;;;;;4938090;28;20203;-82
2023/07/18 07:11:43;;;;;;;0.35;0.35;;;30.50;64.30;;;;;;4942442;28;20218;-81
2023/07/18 07:14:12;;;;;;;1.10;0.80;;;30.50;63.90;;;;;;4942350;29;20195;-81
2023/07/18 07:16:41;;;;;;;0.32;0.22;;;30.60;63.90;;;;;;4938537;29;20226;-83
2023/07/18 07:19:10;;;;;;;0.47;0.40;;;30.60;63.50;;;;;;4943113;28;20233;-81
2023/07/18 07:21:38;;;;;;;0.45;0.45;;;30.70;63.70;;;;;;4942156;28;20203;-82
2023/07/18 07:24:08;;;;;;;1.17;1.02;;;30.70;63.60;;;;;;4940971;28;20943;-81
2023/07/18 07:26:37;;;;;;;0.30;0.30;;;30.70;63.60;;;;;;4944408;28;20199;-81
2023/07/18 07:29:09;;;;;;;1.02;0.85;;;30.80;63.80;;;;;;4944564;28;20629;-86
2023/07/18 07:31:37;;;;;;;1.20;1.10;;;30.90;63.80;;;;;;4940515;28;20230;-86
2023/07/18 07:34:06;;;;;;;0.90;0.63;;;30.90;63.70;;;;;;4950492;28;20241;-83
2023/07/18 07:36:35;;;;;;;0.55;0.52;;;30.90;63.70;;;;;;4944505;28;20209;-84
2023/07/18 07:39:04;;;;;;;0.77;0.50;;;31.00;63.80;;;;;;4925765;28;20222;-83
2023/07/18 07:41:33;;;;;;;0.50;0.47;;;31.10;63.70;;;;;;4942165;28;20198;-83
2023/07/18 07:44:01;;;;;;;0.30;0.30;;;31.10;63.90;;;;;;4941949;28;20227;-82
2023/07/18 07:46:32;;;;;;;0.32;0.32;;;31.20;63.70;;;;;;4938540;28;20203;-84
2023/07/18 07:49:01;;;;;;;0.40;0.40;;;31.20;63.50;;;;;;4939617;28;20238;-82
2023/07/18 07:51:33;;;;;;;0.52;0.50;;;31.30;63.50;;;;;;4938249;28;20203;-84
2023/07/18 07:54:01;;;;;;;0.60;0.57;;;31.40;63.30;;;;;;4943742;28;20573;-82
2023/07/18 07:56:30;;;;;;;0.73;0.70;;;31.40;63.10;;;;;;4943551;28;20715;-82
2023/07/18 07:58:58;;;;;;;1.02;0.88;;;31.40;62.60;;;;;;4948889;28;20222;-84
2023/07/18 08:01:40;;;;;;;1.25;0.93;;;31.50;62.50;;;;;;4935647;28;20195;-81
2023/07/18 08:04:09;;;;;;;0.82;0.57;;;31.50;62.40;;;;;;4941524;28;20221;-86
2023/07/18 08:07:07;;;;;;;1.65;0.90;;;31.60;62.20;;;;;;5119501;27;20600;-85
2023/07/18 08:09:39;;;;;;;1.75;0.40;;;31.70;62.20;;;;;;5093112;28;20699;-83
2023/07/18 08:12:09;;;;;;;0.90;0.70;;;31.70;61.80;;;;;;5104573;28;20197;-84
2023/07/18 08:14:38;;;;;;;0.85;0.60;;;31.80;61.80;;;;;;5100478;28;20579;-82
2023/07/18 08:17:07;;;;;;;0.73;0.73;;;31.80;61.40;;;;;;5095090;27;20676;-80
2023/07/18 08:19:36;;;;;;;0.40;0.40;;;31.90;61.10;;;;;;5093724;28;20632;-82
2023/07/18 08:22:08;;;;;;;1.30;0.93;;;31.90;61.30;;;;;;5090428;28;20197;-82
2023/07/18 08:24:37;;;;;;;1.05;0.95;;;31.90;60.40;;;;;;5095516;28;20195;-85
2023/07/18 08:27:06;;;;;;;1.05;0.95;;;32.00;60.20;;;;;;5090733;28;20244;-83
2023/07/18 08:29:36;;;;;;;2.05;1.15;;;32.00;60.50;;;;;;5093368;28;20205;-84
2023/07/18 08:32:05;;;;;;;1.02;0.68;;;32.00;60.60;;;;;;5090826;28;20193;-85
2023/07/18 08:34:34;;;;;;;2.80;1.48;;;32.20;60.00;;;;;;5095423;28;20222;-85
2023/07/18 08:37:05;;;;;;;0.85;0.57;;;32.20;60.10;;;;;;5088733;28;20308;-82
2023/07/18 08:39:38;;;;;;;0.38;0.38;;;32.20;60.30;;;;;;5095258;28;20207;-84
2023/07/18 08:42:07;;;;;;;2.28;0.63;;;32.30;60.50;;;;;;5093156;28;20197;-83
2023/07/18 08:44:36;;;;;;;0.52;0.45;;;32.40;60.70;;;;;;5088110;28;20212;-83
2023/07/18 08:47:06;;;;;;;1.02;0.93;;;32.40;60.70;;;;;;5100483;28;20302;-82
2023/07/18 08:49:36;;;;;;;0.77;0.70;;;32.50;60.60;;;;;;5092931;28;20205;-84
2023/07/18 08:52:05;;;;;;;0.90;0.80;;;32.60;60.70;;;;;;5093670;28;20250;-84
2023/07/18 08:54:35;;;;;;;0.70;0.65;;;32.70;60.50;;;;;;5093984;27;20196;-84
2023/07/18 08:57:05;;;;;;;1.48;0.95;;;32.70;60.30;;;;;;5094397;28;20189;-83
2023/07/18 08:59:35;;;;;;;0.50;0.50;;;32.80;60.60;;;;;;5089353;28;20189;-83
2023/07/18 09:02:04;;;;;;;0.55;0.55;;;32.80;60.30;;;;;;5099143;28;20205;-84
2023/07/18 09:04:33;;;;;;;0.65;0.50;;;32.90;60.20;;;;;;5094194;28;20189;-82
2023/07/18 09:07:02;;;;;;;0.73;0.70;;;32.90;58.80;;;;;;5087952;28;21099;-83
2023/07/18 09:09:31;;;;;;;1.73;0.95;;;33.00;58.80;;;;;;5092306;28;20251;-82
2023/07/18 09:12:02;;;;;;;1.23;0.50;;;33.00;58.80;;;;;;5091033;28;20648;-82
2023/07/18 09:14:34;;;;;;;0.57;0.57;;;33.10;59.00;;;;;;5092140;28;20665;-84
2023/07/18 09:17:05;;;;;;;0.85;0.60;;;33.10;58.80;;;;;;5084247;28;20186;-84
2023/07/18 09:19:39;;;;;;;1.05;0.75;;;33.20;58.90;;;;;;5085360;28;20306;-84
2023/07/18 09:22:09;;;;;;;0.45;0.45;;;33.20;58.70;;;;;;5081743;28;20202;-84
2023/07/18 09:24:38;;;;;;;2.95;1.00;;;33.30;58.10;;;;;;5078971;28;20193;-84
2023/07/18 09:27:10;;;;;;;0.80;0.80;;;33.40;57.60;;;;;;5076949;28;20226;-83
2023/07/18 09:29:44;;;;;;;1.75;1.10;;;33.40;57.60;;;;;;5078798;28;20597;-83
2023/07/18 09:32:17;;;;;;;0.65;0.65;;;33.50;57.30;;;;;;5079744;28;20198;-87
2023/07/18 09:34:53;;;;;;;1.02;0.85;;;33.60;57.60;;;;;;5076869;28;20197;-82
2023/07/18 09:37:22;;;;;;;0.45;0.45;;;33.60;56.60;;;;;;5075199;28;20197;-84
2023/07/18 09:39:50;;;;;;;1.17;1.08;;;33.60;55.70;;;;;;5078120;28;20202;-82
2023/07/18 09:42:22;;;;;;;0.90;0.75;;;33.70;55.70;;;;;;5082866;28;20198;-82
2023/07/18 09:44:52;;;;;;;1.48;0.77;;;33.80;55.90;;;;;;5081222;28;20237;-84
2023/07/18 09:47:21;;;;;;;1.27;0.52;;;33.80;56.10;;;;;;5078309;28;20219;-83
2023/07/18 09:49:51;;;;;;;0.68;0.60;;;33.90;56.00;;;;;;5075663;28;20578;-83
2023/07/18 09:52:25;;;;;;;1.17;0.50;;;33.90;55.70;;;;;;5078365;28;20192;-83
2023/07/18 09:54:54;;;;;;;0.45;0.45;;;34.00;56.00;;;;;;5079645;28;20209;-83
2023/07/18 09:57:24;;;;;;;0.50;0.50;;;34.10;56.10;;;;;;5080241;28;20194;-84
2023/07/18 09:59:55;;;;;;;6.70;1.15;;;34.10;56.20;;;;;;5077725;28;20206;-83
2023/07/18 10:02:23;;;;;;;0.88;0.52;;;34.30;56.30;;;;;;5082992;28;20194;-83
2023/07/18 10:04:52;;;;;;;0.75;0.40;;;34.30;56.00;;;;;;5079136;28;20205;-82
2023/07/18 10:07:21;;;;;;;0.45;0.40;;;34.40;55.20;;;;;;5079559;28;20209;-80
2023/07/18 10:09:49;;;;;;;0.85;0.70;;;34.40;55.00;;;;;;5079288;28;20191;-82
2023/07/18 10:12:18;;;;;;;0.60;0.60;;;34.40;53.80;;;;;;5080679;28;20196;-82
2023/07/18 10:14:56;;;;;;;0.82;0.65;;;34.50;54.10;;;;;;5076458;28;20198;-82
2023/07/18 10:17:33;;;;;;;0.68;0.68;;;34.60;54.50;;;;;;5078800;28;22567;-83
2023/07/18 10:20:12;;;;;;;0.88;0.73;;;34.70;54.30;;;;;;5081742;28;20276;-82
2023/07/18 10:22:48;;;;;;;1.45;0.63;;;34.80;54.30;;;;;;5079792;28;20254;-81
2023/07/18 10:25:19;;;;;;;1.00;0.93;;;34.80;54.40;;;;;;5080795;28;20209;-82
2023/07/18 10:27:49;;;;;;;0.98;0.93;;;34.90;53.90;;;;;;5081792;28;20221;-82
2023/07/18 10:30:20;;;;;;;0.65;0.65;;;34.90;53.20;;;;;;5083852;28;20903;-81
2023/07/18 10:32:53;;;;;;;2.28;0.80;;;35.00;53.20;;;;;;5077576;28;20215;-83
2023/07/18 10:35:24;;;;;;;0.82;0.60;;;35.00;53.00;;;;;;5080140;28;20202;-82
2023/07/18 10:37:54;;;;;;;0.90;0.82;;;35.10;53.30;;;;;;5082710;28;20201;-81
2023/07/18 10:40:35;;;;;;;0.80;0.80;;;35.10;53.40;;;;;;5084153;28;20260;-81
2023/07/18 10:43:06;;;;;;;1.33;0.82;;;35.20;53.80;;;;;;5079117;28;20559;-81
2023/07/18 10:45:39;;;;;;;0.60;0.60;;;35.10;53.60;;;;;;5084485;28;20284;-82
2023/07/18 10:48:12;;;;;;;0.77;0.47;;;35.10;53.00;;;;;;5088241;28;20210;-82
2023/07/18 10:50:41;;;;;;;1.23;0.98;;;35.20;53.30;;;;;;5082222;28;20652;-82
2023/07/18 10:53:14;;;;;;;0.52;0.52;;;35.30;53.30;;;;;;5087969;27;20236;-80
2023/07/18 10:55:45;;;;;;;0.82;0.60;;;35.30;53.50;;;;;;5077083;28;20237;-82
2023/07/18 10:58:17;;;;;;;0.30;0.30;;;35.40;53.70;;;;;;5090097;28;20201;-82
2023/07/18 11:00:48;;;;;;;2.45;0.77;;;35.50;53.70;;;;;;5079379;28;20198;-83
2023/07/18 11:03:22;;;;;;;0.63;0.50;;;35.60;53.80;;;;;;5089551;28;20640;-83
2023/07/18 11:05:51;;;;;;;0.25;0.25;;;35.60;53.70;;;;;;5082281;28;20213;-83
2023/07/18 11:08:25;;;;;;;2.60;0.90;;;35.60;53.40;;;;;;5087372;28;20214;-84
2023/07/18 11:10:58;;;;;;;1.13;0.70;;;35.70;53.60;;;;;;5075637;28;20243;-83
2023/07/18 11:13:31;;;;;;;0.40;0.40;;;35.80;53.80;;;;;;5079322;28;20677;-84
2023/07/18 11:16:04;;;;;;;0.68;0.60;;;35.80;53.80;;;;;;5082458;28;20703;-87
2023/07/18 11:18:33;;;;;;;0.85;0.85;;;35.90;53.40;;;;;;5085965;28;20185;-83
2023/07/18 11:21:03;;;;;;;0.60;0.60;;;35.90;53.50;;;;;;5080319;28;20189;-80
2023/07/18 11:23:34;;;;;;;1.50;1.17;;;35.90;53.30;;;;;;5082529;28;20201;-81
2023/07/18 11:26:10;;;;;;;0.57;0.50;;;35.80;53.40;;;;;;5080708;28;20190;-81
2023/07/18 11:28:38;;;;;;;0.63;0.60;;;35.80;53.40;;;;;;5075068;28;20209;-81
2023/07/18 11:31:21;;;;;;;0.90;0.88;;;35.80;53.20;;;;;;5082458;28;20659;-82
2023/07/18 11:34:08;;;;;;;0.50;0.50;;;35.80;53.40;;;;;;5074021;28;20188;-82
2023/07/18 11:36:41;;;;;;;1.67;1.10;;;35.70;53.60;;;;;;5082489;28;20533;-83
2023/07/18 11:39:21;;;;;;;0.98;0.82;;;35.70;53.30;;;;;;5088588;28;20296;-81
2023/07/18 11:41:52;;;;;;;1.45;1.13;;;35.70;53.40;;;;;;5080519;28;20194;-83
2023/07/18 11:44:26;;;;;;;5.88;1.42;;;35.60;53.40;;;;;;5086205;28;20213;-81
2023/07/18 11:46:56;;;;;;;0.95;0.88;;;35.50;53.40;;;;;;5083792;28;20221;-82
2023/07/18 11:49:35;;;;;;;1.25;0.95;;;35.40;53.60;;;;;;5088438;28;20182;-83
2023/07/18 11:52:05;;;;;;;1.50;0.90;;;35.40;53.20;;;;;;5082586;28;20278;-83
2023/07/18 11:54:35;;;;;;;1.67;1.17;;;35.50;53.30;;;;;;5082592;28;20201;-83
2023/07/18 11:57:06;;;;;;;0.60;0.57;;;35.50;52.80;;;;;;5084000;28;20190;-82
2023/07/18 11:59:34;;;;;;;0.98;0.82;;;35.50;52.40;;;;;;5090458;28;20268;-81
2023/07/18 12:02:04;;;;;;;0.85;0.55;;;35.60;52.10;;;;;;5087912;28;20621;-82
2023/07/18 12:04:33;;;;;;;0.90;0.73;;;35.70;52.30;;;;;;5084715;28;20203;-82
2023/07/18 12:07:01;;;;;;;1.52;1.27;;;35.70;51.50;;;;;;5081763;28;20222;-83
2023/07/18 12:09:31;;;;;;;0.88;0.82;;;35.70;51.20;;;;;;5085642;28;20191;-83
2023/07/18 12:12:00;;;;;;;0.35;0.35;;;35.80;51.30;;;;;;5084004;28;20247;-82
2023/07/18 12:14:29;;;;;;;0.63;0.63;;;35.80;51.30;;;;;;5092625;28;20197;-82
2023/07/18 12:16:57;;;;;;;1.13;0.98;;;35.90;51.50;;;;;;5085250;28;20221;-83
2023/07/18 12:19:27;;;;;;;0.95;0.75;;;36.00;50.50;;;;;;5089129;28;20195;-85
2023/07/18 12:21:56;;;;;;;0.85;0.68;;;36.00;49.80;;;;;;5086332;28;20202;-84
2023/07/18 12:24:24;;;;;;;0.60;0.50;;;36.00;47.70;;;;;;5077296;28;20194;-86
2023/07/18 12:26:52;;;;;;;0.68;0.68;;;36.00;46.30;;;;;;5078905;28;20201;-83
2023/07/18 12:29:22;;;;;;;0.80;0.70;;;36.20;46.00;;;;;;5078308;28;20292;-85
2023/07/18 12:31:51;;;;;;;1.17;0.95;;;36.20;45.70;;;;;;5085884;28;20205;-83
2023/07/18 12:34:20;;;;;;;0.40;0.40;;;36.20;44.50;;;;;;5074365;28;20255;-83
2023/07/18 12:36:51;;;;;;;0.98;0.88;;;36.30;44.80;;;;;;5078493;28;20197;-83
2023/07/18 12:39:19;;;;;;;0.95;0.60;;;36.40;45.10;;;;;;5079887;28;20198;-82
2023/07/18 12:41:48;;;;;;;1.20;0.57;;;36.40;45.10;;;;;;5082731;28;20251;-83
2023/07/18 12:44:18;;;;;;;1.20;0.55;;;36.50;45.50;;;;;;5087130;28;20201;-83
2023/07/18 12:46:49;;;;;;;0.25;0.25;;;36.50;45.90;;;;;;5081580;28;20189;-85
2023/07/18 12:49:18;;;;;;;2.25;0.57;;;36.60;46.10;;;;;;5076379;28;20224;-82
2023/07/18 12:52:08;;;;;;;0.50;0.50;;;36.80;45.90;;;;;;5079824;28;20265;-82
2023/07/18 12:54:36;;;;;;;1.75;0.75;;;36.80;45.20;;;;;;5086842;28;20551;-81
2023/07/18 12:57:06;;;;;;;0.93;0.68;;;36.80;44.80;;;;;;5078870;28;20221;-81
2023/07/18 12:59:34;;;;;;;0.35;0.35;;;36.80;44.00;;;;;;5082490;28;20206;-81
2023/07/18 13:02:02;;;;;;;1.00;0.77;;;36.80;43.30;;;;;;5086654;28;20244;-84